sensor_id;sensor_type;location;lat;lon;timestamp;P1;durP1;ratioP1;P2;durP2;ratioP2
39540;SDS011;25219;52.244;21.006;2023-05-10T00:02:18;9.23;;;5.13;;
39540;SDS011;25219;52.244;21.006;2023-05-10T00:04:43;10.27;;;4.70;;
39540;SDS011;25219;52.244;21.006;2023-05-10T00:07:08;9.18;;;4.63;;
39540;SDS011;25219;52.244;21.006;2023-05-10T00:09:35;9.27;;;4.13;;
39540;SDS011;25219;52.244;21.006;2023-05-10T00:12:00;8.93;;;4.83;;
39540;SDS011;25219;52.244;21.006;2023-05-10T00:14:25;7.67;;;4.17;;
39540;SDS011;25219;52.244;21.006;2023-05-10T00:16:50;8.03;;;4.73;;
39540;SDS011;25219;52.244;21.006;2023-05-10T00:19:15;9.10;;;4.90;;
39540;SDS011;25219;52.244;21.006;2023-05-10T00:21:41;8.90;;;4.30;;
39540;SDS011;25219;52.244;21.006;2023-05-10T00:24:06;10.73;;;4.90;;
39540;SDS011;25219;52.244;21.006;2023-05-10T00:26:31;7.97;;;4.18;;
39540;SDS011;25219;52.244;21.006;2023-05-10T00:28:56;10.77;;;4.83;;
39540;SDS011;25219;52.244;21.006;2023-05-10T00:31:23;9.55;;;4.20;;
39540;SDS011;25219;52.244;21.006;2023-05-10T00:33:48;11.57;;;4.77;;
39540;SDS011;25219;52.244;21.006;2023-05-10T00:36:13;13.27;;;4.50;;
39540;SDS011;25219;52.244;21.006;2023-05-10T00:38:39;9.55;;;4.72;;
39540;SDS011;25219;52.244;21.006;2023-05-10T00:41:04;11.53;;;4.80;;
39540;SDS011;25219;52.244;21.006;2023-05-10T00:43:29;8.88;;;4.30;;
39540;SDS011;25219;52.244;21.006;2023-05-10T00:45:54;8.23;;;4.38;;
39540;SDS011;25219;52.244;21.006;2023-05-10T00:48:20;7.97;;;4.65;;
39540;SDS011;25219;52.244;21.006;2023-05-10T00:50:45;9.50;;;4.82;;
39540;SDS011;25219;52.244;21.006;2023-05-10T00:53:11;9.80;;;3.88;;
39540;SDS011;25219;52.244;21.006;2023-05-10T00:55:36;7.45;;;4.00;;
39540;SDS011;25219;52.244;21.006;2023-05-10T00:58:02;9.15;;;4.20;;
39540;SDS011;25219;52.244;21.006;2023-05-10T01:00:27;11.55;;;4.47;;
39540;SDS011;25219;52.244;21.006;2023-05-10T01:02:53;8.85;;;4.55;;
39540;SDS011;25219;52.244;21.006;2023-05-10T01:05:18;12.27;;;4.85;;
39540;SDS011;25219;52.244;21.006;2023-05-10T01:07:44;11.30;;;5.13;;
39540;SDS011;25219;52.244;21.006;2023-05-10T01:10:09;10.10;;;4.72;;
39540;SDS011;25219;52.244;21.006;2023-05-10T01:12:35;6.82;;;3.90;;
39540;SDS011;25219;52.244;21.006;2023-05-10T01:15:01;7.07;;;4.15;;
39540;SDS011;25219;52.244;21.006;2023-05-10T01:17:27;7.82;;;4.70;;
39540;SDS011;25219;52.244;21.006;2023-05-10T01:19:52;11.85;;;4.60;;
39540;SDS011;25219;52.244;21.006;2023-05-10T01:24:57;10.23;;;4.38;;
39540;SDS011;25219;52.244;21.006;2023-05-10T01:27:35;7.70;;;3.92;;
39540;SDS011;25219;52.244;21.006;2023-05-10T01:35:06;6.10;;;3.43;;
39540;SDS011;25219;52.244;21.006;2023-05-10T01:37:37;8.13;;;4.00;;
39540;SDS011;25219;52.244;21.006;2023-05-10T01:40:08;7.80;;;4.35;;
39540;SDS011;25219;52.244;21.006;2023-05-10T01:42:40;8.55;;;4.13;;
39540;SDS011;25219;52.244;21.006;2023-05-10T01:47:37;7.45;;;4.40;;
39540;SDS011;25219;52.244;21.006;2023-05-10T01:50:04;8.40;;;4.00;;
39540;SDS011;25219;52.244;21.006;2023-05-10T01:52:32;9.60;;;3.85;;
39540;SDS011;25219;52.244;21.006;2023-05-10T01:55:08;6.18;;;3.60;;
39540;SDS011;25219;52.244;21.006;2023-05-10T01:57:34;9.07;;;4.20;;
39540;SDS011;25219;52.244;21.006;2023-05-10T02:00:01;9.90;;;4.60;;
39540;SDS011;25219;52.244;21.006;2023-05-10T02:02:27;9.13;;;4.18;;
39540;SDS011;25219;52.244;21.006;2023-05-10T02:04:53;8.18;;;4.30;;
39540;SDS011;25219;52.244;21.006;2023-05-10T02:07:19;11.55;;;4.30;;
39540;SDS011;25219;52.244;21.006;2023-05-10T02:09:45;6.30;;;3.85;;
39540;SDS011;25219;52.244;21.006;2023-05-10T02:12:14;7.82;;;4.05;;
39540;SDS011;25219;52.244;21.006;2023-05-10T02:14:41;7.57;;;4.05;;
39540;SDS011;25219;52.244;21.006;2023-05-10T02:17:07;7.70;;;3.88;;
39540;SDS011;25219;52.244;21.006;2023-05-10T02:19:33;8.18;;;3.75;;
39540;SDS011;25219;52.244;21.006;2023-05-10T02:21:59;8.98;;;4.45;;
39540;SDS011;25219;52.244;21.006;2023-05-10T02:24:25;6.88;;;3.88;;
39540;SDS011;25219;52.244;21.006;2023-05-10T02:26:51;8.73;;;4.10;;
39540;SDS011;25219;52.244;21.006;2023-05-10T02:29:18;7.95;;;3.92;;
39540;SDS011;25219;52.244;21.006;2023-05-10T02:31:44;7.20;;;3.90;;
39540;SDS011;25219;52.244;21.006;2023-05-10T02:34:10;9.43;;;3.92;;
39540;SDS011;25219;52.244;21.006;2023-05-10T02:36:36;9.50;;;3.95;;
39540;SDS011;25219;52.244;21.006;2023-05-10T02:39:02;6.03;;;3.95;;
39540;SDS011;25219;52.244;21.006;2023-05-10T02:41:28;7.32;;;3.58;;
39540;SDS011;25219;52.244;21.006;2023-05-10T02:43:56;8.00;;;4.30;;
39540;SDS011;25219;52.244;21.006;2023-05-10T02:46:22;7.72;;;4.05;;
39540;SDS011;25219;52.244;21.006;2023-05-10T02:48:48;8.55;;;4.28;;
39540;SDS011;25219;52.244;21.006;2023-05-10T02:51:13;8.50;;;3.50;;
39540;SDS011;25219;52.244;21.006;2023-05-10T02:53:42;8.82;;;3.90;;
39540;SDS011;25219;52.244;21.006;2023-05-10T02:56:11;6.85;;;3.95;;
39540;SDS011;25219;52.244;21.006;2023-05-10T02:58:38;9.77;;;3.80;;
39540;SDS011;25219;52.244;21.006;2023-05-10T03:01:03;6.72;;;4.18;;
39540;SDS011;25219;52.244;21.006;2023-05-10T03:03:28;10.73;;;3.67;;
39540;SDS011;25219;52.244;21.006;2023-05-10T03:05:54;8.97;;;4.17;;
39540;SDS011;25219;52.244;21.006;2023-05-10T03:08:21;6.43;;;3.70;;
39540;SDS011;25219;52.244;21.006;2023-05-10T03:10:50;6.57;;;4.30;;
39540;SDS011;25219;52.244;21.006;2023-05-10T03:16:08;13.38;;;4.15;;
39540;SDS011;25219;52.244;21.006;2023-05-10T03:18:37;7.22;;;4.05;;
39540;SDS011;25219;52.244;21.006;2023-05-10T03:21:07;7.85;;;3.85;;
39540;SDS011;25219;52.244;21.006;2023-05-10T03:23:34;8.13;;;4.20;;
39540;SDS011;25219;52.244;21.006;2023-05-10T03:26:00;7.35;;;3.80;;
39540;SDS011;25219;52.244;21.006;2023-05-10T03:28:26;8.70;;;3.90;;
39540;SDS011;25219;52.244;21.006;2023-05-10T03:30:54;6.57;;;3.70;;
39540;SDS011;25219;52.244;21.006;2023-05-10T03:33:20;9.35;;;3.25;;
39540;SDS011;25219;52.244;21.006;2023-05-10T03:35:45;7.78;;;3.80;;
39540;SDS011;25219;52.244;21.006;2023-05-10T03:38:11;8.80;;;3.95;;
39540;SDS011;25219;52.244;21.006;2023-05-10T03:40:36;7.85;;;3.63;;
39540;SDS011;25219;52.244;21.006;2023-05-10T03:43:02;7.65;;;4.13;;
39540;SDS011;25219;52.244;21.006;2023-05-10T03:45:27;6.35;;;3.35;;
39540;SDS011;25219;52.244;21.006;2023-05-10T03:47:52;7.67;;;3.87;;
39540;SDS011;25219;52.244;21.006;2023-05-10T03:50:17;8.73;;;3.63;;
39540;SDS011;25219;52.244;21.006;2023-05-10T03:52:43;7.35;;;3.78;;
39540;SDS011;25219;52.244;21.006;2023-05-10T03:55:09;13.00;;;4.25;;
39540;SDS011;25219;52.244;21.006;2023-05-10T03:57:34;8.82;;;3.72;;
39540;SDS011;25219;52.244;21.006;2023-05-10T04:00:00;11.63;;;3.97;;
39540;SDS011;25219;52.244;21.006;2023-05-10T04:02:25;12.73;;;4.10;;
39540;SDS011;25219;52.244;21.006;2023-05-10T04:04:50;9.50;;;3.87;;
39540;SDS011;25219;52.244;21.006;2023-05-10T04:07:15;11.57;;;4.00;;
39540;SDS011;25219;52.244;21.006;2023-05-10T04:09:41;11.47;;;4.50;;
39540;SDS011;25219;52.244;21.006;2023-05-10T04:12:06;7.43;;;3.80;;
39540;SDS011;25219;52.244;21.006;2023-05-10T04:14:31;8.50;;;3.88;;
39540;SDS011;25219;52.244;21.006;2023-05-10T04:16:56;5.05;;;3.65;;
39540;SDS011;25219;52.244;21.006;2023-05-10T04:19:22;14.13;;;4.13;;
39540;SDS011;25219;52.244;21.006;2023-05-10T04:21:47;10.77;;;5.15;;
39540;SDS011;25219;52.244;21.006;2023-05-10T04:24:12;8.27;;;3.90;;
39540;SDS011;25219;52.244;21.006;2023-05-10T04:26:37;9.73;;;3.90;;
39540;SDS011;25219;52.244;21.006;2023-05-10T04:29:03;11.00;;;4.20;;
39540;SDS011;25219;52.244;21.006;2023-05-10T04:31:28;6.57;;;3.70;;
39540;SDS011;25219;52.244;21.006;2023-05-10T04:33:53;8.33;;;3.73;;
39540;SDS011;25219;52.244;21.006;2023-05-10T04:36:18;7.40;;;4.00;;
39540;SDS011;25219;52.244;21.006;2023-05-10T04:38:43;6.33;;;4.07;;
39540;SDS011;25219;52.244;21.006;2023-05-10T04:41:09;6.77;;;3.97;;
39540;SDS011;25219;52.244;21.006;2023-05-10T04:43:35;7.82;;;3.83;;
39540;SDS011;25219;52.244;21.006;2023-05-10T04:46:01;16.85;;;3.72;;
39540;SDS011;25219;52.244;21.006;2023-05-10T04:48:26;7.33;;;3.97;;
39540;SDS011;25219;52.244;21.006;2023-05-10T04:50:51;13.63;;;4.40;;
39540;SDS011;25219;52.244;21.006;2023-05-10T04:53:16;11.55;;;4.13;;
39540;SDS011;25219;52.244;21.006;2023-05-10T04:55:42;11.43;;;4.30;;
39540;SDS011;25219;52.244;21.006;2023-05-10T04:58:07;6.45;;;3.80;;
39540;SDS011;25219;52.244;21.006;2023-05-10T05:00:32;11.57;;;3.97;;
39540;SDS011;25219;52.244;21.006;2023-05-10T05:02:58;10.05;;;3.90;;
39540;SDS011;25219;52.244;21.006;2023-05-10T05:05:23;12.27;;;3.77;;
39540;SDS011;25219;52.244;21.006;2023-05-10T05:07:48;10.03;;;4.33;;
39540;SDS011;25219;52.244;21.006;2023-05-10T05:10:13;9.43;;;3.93;;
39540;SDS011;25219;52.244;21.006;2023-05-10T05:12:38;16.60;;;4.20;;
39540;SDS011;25219;52.244;21.006;2023-05-10T05:15:04;8.87;;;3.37;;
39540;SDS011;25219;52.244;21.006;2023-05-10T05:17:32;6.55;;;3.80;;
39540;SDS011;25219;52.244;21.006;2023-05-10T05:19:57;9.35;;;3.53;;
39540;SDS011;25219;52.244;21.006;2023-05-10T05:22:22;8.53;;;4.27;;
39540;SDS011;25219;52.244;21.006;2023-05-10T05:24:55;9.23;;;3.45;;
39540;SDS011;25219;52.244;21.006;2023-05-10T05:27:20;8.95;;;3.75;;
39540;SDS011;25219;52.244;21.006;2023-05-10T05:29:48;9.77;;;4.30;;
39540;SDS011;25219;52.244;21.006;2023-05-10T05:32:14;8.33;;;3.63;;
39540;SDS011;25219;52.244;21.006;2023-05-10T05:34:39;10.15;;;3.83;;
39540;SDS011;25219;52.244;21.006;2023-05-10T05:37:04;12.03;;;3.50;;
39540;SDS011;25219;52.244;21.006;2023-05-10T05:39:29;11.83;;;3.23;;
39540;SDS011;25219;52.244;21.006;2023-05-10T05:41:54;11.10;;;3.33;;
39540;SDS011;25219;52.244;21.006;2023-05-10T05:44:20;9.70;;;3.40;;
39540;SDS011;25219;52.244;21.006;2023-05-10T05:46:45;7.93;;;3.53;;
39540;SDS011;25219;52.244;21.006;2023-05-10T05:49:10;8.00;;;4.30;;
39540;SDS011;25219;52.244;21.006;2023-05-10T05:51:35;8.60;;;3.27;;
39540;SDS011;25219;52.244;21.006;2023-05-10T05:54:01;6.70;;;3.03;;
39540;SDS011;25219;52.244;21.006;2023-05-10T05:56:26;9.38;;;3.28;;
39540;SDS011;25219;52.244;21.006;2023-05-10T05:58:51;8.32;;;3.83;;
39540;SDS011;25219;52.244;21.006;2023-05-10T06:01:17;6.53;;;3.27;;
39540;SDS011;25219;52.244;21.006;2023-05-10T06:03:42;9.82;;;3.45;;
39540;SDS011;25219;52.244;21.006;2023-05-10T06:06:07;7.63;;;3.63;;
39540;SDS011;25219;52.244;21.006;2023-05-10T06:08:33;5.53;;;2.97;;
39540;SDS011;25219;52.244;21.006;2023-05-10T06:10:58;10.27;;;2.60;;
39540;SDS011;25219;52.244;21.006;2023-05-10T06:13:24;8.90;;;2.93;;
39540;SDS011;25219;52.244;21.006;2023-05-10T06:15:49;7.05;;;2.75;;
39540;SDS011;25219;52.244;21.006;2023-05-10T06:18:14;13.90;;;3.80;;
39540;SDS011;25219;52.244;21.006;2023-05-10T06:20:40;5.60;;;2.60;;
39540;SDS011;25219;52.244;21.006;2023-05-10T06:23:06;5.63;;;2.67;;
39540;SDS011;25219;52.244;21.006;2023-05-10T06:25:31;10.03;;;3.17;;
39540;SDS011;25219;52.244;21.006;2023-05-10T06:27:56;11.20;;;3.07;;
39540;SDS011;25219;52.244;21.006;2023-05-10T06:30:23;10.38;;;3.60;;
39540;SDS011;25219;52.244;21.006;2023-05-10T06:32:52;13.95;;;3.05;;
39540;SDS011;25219;52.244;21.006;2023-05-10T06:35:17;9.90;;;3.03;;
39540;SDS011;25219;52.244;21.006;2023-05-10T06:37:42;7.65;;;3.10;;
39540;SDS011;25219;52.244;21.006;2023-05-10T06:40:08;11.35;;;3.88;;
39540;SDS011;25219;52.244;21.006;2023-05-10T06:42:34;5.07;;;2.97;;
39540;SDS011;25219;52.244;21.006;2023-05-10T06:44:59;5.80;;;2.80;;
39540;SDS011;25219;52.244;21.006;2023-05-10T06:47:24;7.90;;;2.55;;
39540;SDS011;25219;52.244;21.006;2023-05-10T06:49:49;9.87;;;2.87;;
39540;SDS011;25219;52.244;21.006;2023-05-10T06:52:15;4.77;;;2.37;;
39540;SDS011;25219;52.244;21.006;2023-05-10T06:54:40;5.73;;;2.50;;
39540;SDS011;25219;52.244;21.006;2023-05-10T06:57:05;7.33;;;2.50;;
39540;SDS011;25219;52.244;21.006;2023-05-10T06:59:30;4.93;;;3.03;;
39540;SDS011;25219;52.244;21.006;2023-05-10T07:01:55;6.32;;;2.33;;
39540;SDS011;25219;52.244;21.006;2023-05-10T07:04:21;6.77;;;2.40;;
39540;SDS011;25219;52.244;21.006;2023-05-10T07:06:46;5.30;;;3.37;;
39540;SDS011;25219;52.244;21.006;2023-05-10T07:09:11;10.77;;;2.23;;
39540;SDS011;25219;52.244;21.006;2023-05-10T07:11:36;7.03;;;2.22;;
39540;SDS011;25219;52.244;21.006;2023-05-10T07:14:02;3.35;;;1.63;;
39540;SDS011;25219;52.244;21.006;2023-05-10T07:16:27;9.80;;;2.03;;
39540;SDS011;25219;52.244;21.006;2023-05-10T07:18:53;3.25;;;2.13;;
39540;SDS011;25219;52.244;21.006;2023-05-10T07:21:18;4.40;;;2.07;;
39540;SDS011;25219;52.244;21.006;2023-05-10T07:23:43;9.67;;;2.03;;
39540;SDS011;25219;52.244;21.006;2023-05-10T07:26:09;4.00;;;2.17;;
39540;SDS011;25219;52.244;21.006;2023-05-10T07:28:35;8.02;;;2.40;;
39540;SDS011;25219;52.244;21.006;2023-05-10T07:31:02;6.32;;;2.30;;
39540;SDS011;25219;52.244;21.006;2023-05-10T07:33:27;8.17;;;2.13;;
39540;SDS011;25219;52.244;21.006;2023-05-10T07:35:52;3.97;;;2.10;;
39540;SDS011;25219;52.244;21.006;2023-05-10T07:38:18;5.18;;;2.35;;
39540;SDS011;25219;52.244;21.006;2023-05-10T07:40:43;6.70;;;2.03;;
39540;SDS011;25219;52.244;21.006;2023-05-10T07:43:08;5.27;;;2.23;;
39540;SDS011;25219;52.244;21.006;2023-05-10T07:45:33;5.20;;;2.20;;
39540;SDS011;25219;52.244;21.006;2023-05-10T07:47:59;3.60;;;2.17;;
39540;SDS011;25219;52.244;21.006;2023-05-10T07:50:24;8.70;;;2.05;;
39540;SDS011;25219;52.244;21.006;2023-05-10T07:52:50;6.78;;;1.90;;
39540;SDS011;25219;52.244;21.006;2023-05-10T07:55:15;5.37;;;1.77;;
39540;SDS011;25219;52.244;21.006;2023-05-10T07:57:41;11.88;;;2.45;;
39540;SDS011;25219;52.244;21.006;2023-05-10T08:00:06;4.57;;;1.80;;
39540;SDS011;25219;52.244;21.006;2023-05-10T08:02:32;8.27;;;2.83;;
39540;SDS011;25219;52.244;21.006;2023-05-10T08:04:57;9.30;;;2.28;;
39540;SDS011;25219;52.244;21.006;2023-05-10T08:07:24;4.88;;;1.95;;
39540;SDS011;25219;52.244;21.006;2023-05-10T08:09:49;5.82;;;2.00;;
39540;SDS011;25219;52.244;21.006;2023-05-10T08:12:14;3.88;;;1.67;;
39540;SDS011;25219;52.244;21.006;2023-05-10T08:14:39;8.43;;;1.63;;
39540;SDS011;25219;52.244;21.006;2023-05-10T08:17:05;3.60;;;1.92;;
39540;SDS011;25219;52.244;21.006;2023-05-10T08:19:30;14.20;;;2.40;;
39540;SDS011;25219;52.244;21.006;2023-05-10T08:21:56;11.15;;;1.92;;
39540;SDS011;25219;52.244;21.006;2023-05-10T08:24:21;5.18;;;1.73;;
39540;SDS011;25219;52.244;21.006;2023-05-10T08:26:47;6.65;;;1.70;;
39540;SDS011;25219;52.244;21.006;2023-05-10T08:29:12;5.38;;;1.70;;
39540;SDS011;25219;52.244;21.006;2023-05-10T08:31:38;3.38;;;1.80;;
39540;SDS011;25219;52.244;21.006;2023-05-10T08:34:03;6.00;;;1.63;;
39540;SDS011;25219;52.244;21.006;2023-05-10T08:36:28;6.50;;;1.80;;
39540;SDS011;25219;52.244;21.006;2023-05-10T08:38:53;4.57;;;2.17;;
39540;SDS011;25219;52.244;21.006;2023-05-10T08:41:22;11.68;;;1.58;;
39540;SDS011;25219;52.244;21.006;2023-05-10T08:43:49;6.20;;;1.90;;
39540;SDS011;25219;52.244;21.006;2023-05-10T08:46:15;8.63;;;1.73;;
39540;SDS011;25219;52.244;21.006;2023-05-10T08:48:41;3.28;;;1.60;;
39540;SDS011;25219;52.244;21.006;2023-05-10T08:51:07;11.25;;;1.60;;
39540;SDS011;25219;52.244;21.006;2023-05-10T08:53:33;3.83;;;1.80;;
39540;SDS011;25219;52.244;21.006;2023-05-10T08:56:01;7.68;;;1.70;;
39540;SDS011;25219;52.244;21.006;2023-05-10T08:58:26;5.45;;;2.00;;
39540;SDS011;25219;52.244;21.006;2023-05-10T09:00:52;3.95;;;1.92;;
39540;SDS011;25219;52.244;21.006;2023-05-10T09:03:17;8.30;;;1.97;;
39540;SDS011;25219;52.244;21.006;2023-05-10T09:05:42;4.50;;;2.07;;
39540;SDS011;25219;52.244;21.006;2023-05-10T09:08:09;4.20;;;1.90;;
39540;SDS011;25219;52.244;21.006;2023-05-10T09:10:35;4.57;;;1.55;;
39540;SDS011;25219;52.244;21.006;2023-05-10T09:13:01;3.25;;;1.70;;
39540;SDS011;25219;52.244;21.006;2023-05-10T09:15:26;7.35;;;1.42;;
39540;SDS011;25219;52.244;21.006;2023-05-10T09:17:52;3.90;;;1.87;;
39540;SDS011;25219;52.244;21.006;2023-05-10T09:20:17;4.67;;;1.83;;
39540;SDS011;25219;52.244;21.006;2023-05-10T09:22:42;8.90;;;1.90;;
39540;SDS011;25219;52.244;21.006;2023-05-10T09:25:08;4.07;;;1.70;;
39540;SDS011;25219;52.244;21.006;2023-05-10T09:27:34;3.58;;;1.67;;
39540;SDS011;25219;52.244;21.006;2023-05-10T09:30:00;7.43;;;1.83;;
39540;SDS011;25219;52.244;21.006;2023-05-10T09:32:47;8.43;;;1.88;;
39540;SDS011;25219;52.244;21.006;2023-05-10T09:35:14;4.10;;;1.77;;
39540;SDS011;25219;52.244;21.006;2023-05-10T09:37:40;10.70;;;1.83;;
39540;SDS011;25219;52.244;21.006;2023-05-10T09:40:12;8.18;;;1.80;;
39540;SDS011;25219;52.244;21.006;2023-05-10T09:42:38;3.80;;;1.92;;
39540;SDS011;25219;52.244;21.006;2023-05-10T09:45:03;4.07;;;1.70;;
39540;SDS011;25219;52.244;21.006;2023-05-10T09:47:29;4.45;;;1.52;;
39540;SDS011;25219;52.244;21.006;2023-05-10T09:49:57;5.15;;;1.90;;
39540;SDS011;25219;52.244;21.006;2023-05-10T09:52:27;2.47;;;1.83;;
39540;SDS011;25219;52.244;21.006;2023-05-10T09:54:53;4.35;;;2.03;;
39540;SDS011;25219;52.244;21.006;2023-05-10T09:57:22;5.47;;;1.88;;
39540;SDS011;25219;52.244;21.006;2023-05-10T09:59:48;3.95;;;2.00;;
39540;SDS011;25219;52.244;21.006;2023-05-10T10:02:14;7.93;;;1.85;;
39540;SDS011;25219;52.244;21.006;2023-05-10T10:04:39;9.35;;;1.67;;
39540;SDS011;25219;52.244;21.006;2023-05-10T10:07:05;6.68;;;2.00;;
39540;SDS011;25219;52.244;21.006;2023-05-10T10:09:31;9.45;;;1.83;;
39540;SDS011;25219;52.244;21.006;2023-05-10T10:11:56;2.30;;;1.60;;
39540;SDS011;25219;52.244;21.006;2023-05-10T10:14:22;6.85;;;1.90;;
39540;SDS011;25219;52.244;21.006;2023-05-10T10:16:49;2.80;;;1.85;;
39540;SDS011;25219;52.244;21.006;2023-05-10T10:19:14;7.05;;;2.33;;
39540;SDS011;25219;52.244;21.006;2023-05-10T10:21:40;6.25;;;1.73;;
39540;SDS011;25219;52.244;21.006;2023-05-10T10:24:05;4.38;;;1.60;;
39540;SDS011;25219;52.244;21.006;2023-05-10T10:26:33;10.65;;;2.88;;
39540;SDS011;25219;52.244;21.006;2023-05-10T10:31:46;4.85;;;2.33;;
39540;SDS011;25219;52.244;21.006;2023-05-10T10:34:23;8.35;;;1.83;;
39540;SDS011;25219;52.244;21.006;2023-05-10T10:36:50;6.95;;;1.75;;
39540;SDS011;25219;52.244;21.006;2023-05-10T10:39:15;6.78;;;2.47;;
39540;SDS011;25219;52.244;21.006;2023-05-10T10:49:27;6.57;;;2.00;;
39540;SDS011;25219;52.244;21.006;2023-05-10T10:54:37;6.10;;;2.05;;
39540;SDS011;25219;52.244;21.006;2023-05-10T10:57:11;5.72;;;1.70;;
39540;SDS011;25219;52.244;21.006;2023-05-10T10:59:42;3.90;;;2.30;;
39540;SDS011;25219;52.244;21.006;2023-05-10T11:02:08;6.07;;;1.88;;
39540;SDS011;25219;52.244;21.006;2023-05-10T11:04:43;6.30;;;1.60;;
39540;SDS011;25219;52.244;21.006;2023-05-10T11:07:17;2.53;;;1.90;;
39540;SDS011;25219;52.244;21.006;2023-05-10T11:09:43;3.90;;;1.85;;
39540;SDS011;25219;52.244;21.006;2023-05-10T11:12:08;5.83;;;2.27;;
39540;SDS011;25219;52.244;21.006;2023-05-10T11:14:33;9.90;;;2.38;;
39540;SDS011;25219;52.244;21.006;2023-05-10T11:16:59;6.03;;;2.28;;
39540;SDS011;25219;52.244;21.006;2023-05-10T11:19:27;4.35;;;1.60;;
39540;SDS011;25219;52.244;21.006;2023-05-10T11:22:13;9.07;;;1.90;;
39540;SDS011;25219;52.244;21.006;2023-05-10T11:24:38;8.15;;;1.95;;
39540;SDS011;25219;52.244;21.006;2023-05-10T11:27:03;7.03;;;1.60;;
39540;SDS011;25219;52.244;21.006;2023-05-10T11:29:29;5.05;;;1.92;;
39540;SDS011;25219;52.244;21.006;2023-05-10T11:31:56;7.13;;;2.70;;
39540;SDS011;25219;52.244;21.006;2023-05-10T11:34:25;7.57;;;1.80;;
39540;SDS011;25219;52.244;21.006;2023-05-10T11:36:52;6.47;;;1.85;;
39540;SDS011;25219;52.244;21.006;2023-05-10T11:39:18;5.63;;;2.03;;
39540;SDS011;25219;52.244;21.006;2023-05-10T11:41:44;10.02;;;1.88;;
39540;SDS011;25219;52.244;21.006;2023-05-10T11:44:12;2.92;;;1.67;;
39540;SDS011;25219;52.244;21.006;2023-05-10T11:46:37;2.27;;;1.60;;
39540;SDS011;25219;52.244;21.006;2023-05-10T11:49:02;10.60;;;2.50;;
39540;SDS011;25219;52.244;21.006;2023-05-10T11:51:33;5.50;;;2.38;;
39540;SDS011;25219;52.244;21.006;2023-05-10T11:53:58;5.63;;;2.15;;
39540;SDS011;25219;52.244;21.006;2023-05-10T11:56:23;4.63;;;1.63;;
39540;SDS011;25219;52.244;21.006;2023-05-10T11:58:54;4.93;;;1.63;;
39540;SDS011;25219;52.244;21.006;2023-05-10T12:01:20;3.83;;;1.60;;
39540;SDS011;25219;52.244;21.006;2023-05-10T12:03:46;6.47;;;1.77;;
39540;SDS011;25219;52.244;21.006;2023-05-10T12:06:11;6.88;;;1.73;;
39540;SDS011;25219;52.244;21.006;2023-05-10T12:08:36;4.80;;;1.40;;
39540;SDS011;25219;52.244;21.006;2023-05-10T12:11:08;12.03;;;1.97;;
39540;SDS011;25219;52.244;21.006;2023-05-10T12:13:38;6.35;;;2.17;;
39540;SDS011;25219;52.244;21.006;2023-05-10T12:18:42;11.45;;;2.35;;
39540;SDS011;25219;52.244;21.006;2023-05-10T12:21:09;5.50;;;1.73;;
39540;SDS011;25219;52.244;21.006;2023-05-10T12:23:35;4.88;;;2.45;;
39540;SDS011;25219;52.244;21.006;2023-05-10T12:26:01;7.65;;;2.10;;
39540;SDS011;25219;52.244;21.006;2023-05-10T12:28:29;9.38;;;1.90;;
39540;SDS011;25219;52.244;21.006;2023-05-10T12:30:54;6.18;;;2.15;;
39540;SDS011;25219;52.244;21.006;2023-05-10T12:33:19;9.00;;;2.17;;
39540;SDS011;25219;52.244;21.006;2023-05-10T12:35:46;5.73;;;1.87;;
39540;SDS011;25219;52.244;21.006;2023-05-10T12:38:27;6.03;;;1.88;;
39540;SDS011;25219;52.244;21.006;2023-05-10T12:40:55;3.85;;;1.88;;
39540;SDS011;25219;52.244;21.006;2023-05-10T12:43:20;3.10;;;1.50;;
39540;SDS011;25219;52.244;21.006;2023-05-10T12:45:45;2.83;;;1.70;;
39540;SDS011;25219;52.244;21.006;2023-05-10T12:48:13;6.03;;;1.52;;
39540;SDS011;25219;52.244;21.006;2023-05-10T12:50:38;6.63;;;1.50;;
39540;SDS011;25219;52.244;21.006;2023-05-10T12:53:03;4.83;;;2.00;;
39540;SDS011;25219;52.244;21.006;2023-05-10T12:55:28;6.03;;;2.07;;
39540;SDS011;25219;52.244;21.006;2023-05-10T12:57:53;9.97;;;1.80;;
39540;SDS011;25219;52.244;21.006;2023-05-10T13:00:19;10.47;;;1.90;;
39540;SDS011;25219;52.244;21.006;2023-05-10T13:02:44;8.05;;;2.00;;
39540;SDS011;25219;52.244;21.006;2023-05-10T13:05:09;5.10;;;1.57;;
39540;SDS011;25219;52.244;21.006;2023-05-10T13:07:34;9.73;;;1.63;;
39540;SDS011;25219;52.244;21.006;2023-05-10T13:10:00;7.30;;;1.85;;
39540;SDS011;25219;52.244;21.006;2023-05-10T13:12:25;4.73;;;1.80;;
39540;SDS011;25219;52.244;21.006;2023-05-10T13:14:50;5.40;;;1.60;;
39540;SDS011;25219;52.244;21.006;2023-05-10T13:17:15;8.67;;;1.90;;
39540;SDS011;25219;52.244;21.006;2023-05-10T13:19:40;4.03;;;1.73;;
39540;SDS011;25219;52.244;21.006;2023-05-10T13:22:06;5.53;;;1.50;;
39540;SDS011;25219;52.244;21.006;2023-05-10T13:24:31;6.25;;;1.83;;
39540;SDS011;25219;52.244;21.006;2023-05-10T13:26:56;8.70;;;1.90;;
39540;SDS011;25219;52.244;21.006;2023-05-10T13:29:21;7.73;;;2.10;;
39540;SDS011;25219;52.244;21.006;2023-05-10T13:31:47;2.47;;;1.75;;
39540;SDS011;25219;52.244;21.006;2023-05-10T13:34:12;5.38;;;2.00;;
39540;SDS011;25219;52.244;21.006;2023-05-10T13:36:38;4.07;;;2.23;;
39540;SDS011;25219;52.244;21.006;2023-05-10T13:39:03;4.55;;;1.83;;
39540;SDS011;25219;52.244;21.006;2023-05-10T13:41:30;2.90;;;1.67;;
39540;SDS011;25219;52.244;21.006;2023-05-10T13:43:55;3.53;;;1.60;;
39540;SDS011;25219;52.244;21.006;2023-05-10T13:46:20;2.00;;;1.40;;
39540;SDS011;25219;52.244;21.006;2023-05-10T13:48:45;3.93;;;1.93;;
39540;SDS011;25219;52.244;21.006;2023-05-10T13:51:10;8.50;;;1.63;;
39540;SDS011;25219;52.244;21.006;2023-05-10T13:53:36;3.63;;;2.03;;
39540;SDS011;25219;52.244;21.006;2023-05-10T13:56:01;2.42;;;1.52;;
39540;SDS011;25219;52.244;21.006;2023-05-10T13:58:27;6.72;;;1.55;;
39540;SDS011;25219;52.244;21.006;2023-05-10T14:00:53;4.53;;;1.60;;
39540;SDS011;25219;52.244;21.006;2023-05-10T14:03:18;4.50;;;1.80;;
39540;SDS011;25219;52.244;21.006;2023-05-10T14:05:43;9.33;;;1.77;;
39540;SDS011;25219;52.244;21.006;2023-05-10T14:08:09;4.63;;;1.85;;
39540;SDS011;25219;52.244;21.006;2023-05-10T14:10:35;6.85;;;1.83;;
39540;SDS011;25219;52.244;21.006;2023-05-10T14:13:01;3.88;;;1.33;;
39540;SDS011;25219;52.244;21.006;2023-05-10T14:15:28;7.72;;;2.13;;
39540;SDS011;25219;52.244;21.006;2023-05-10T14:17:53;1.93;;;1.37;;
39540;SDS011;25219;52.244;21.006;2023-05-10T14:20:18;3.67;;;1.50;;
39540;SDS011;25219;52.244;21.006;2023-05-10T14:22:43;3.27;;;1.40;;
39540;SDS011;25219;52.244;21.006;2023-05-10T14:25:09;3.43;;;1.87;;
39540;SDS011;25219;52.244;21.006;2023-05-10T14:27:34;5.00;;;1.90;;
39540;SDS011;25219;52.244;21.006;2023-05-10T14:29:59;5.47;;;1.85;;
39540;SDS011;25219;52.244;21.006;2023-05-10T14:32:24;5.53;;;1.80;;
39540;SDS011;25219;52.244;21.006;2023-05-10T14:34:51;2.15;;;1.40;;
39540;SDS011;25219;52.244;21.006;2023-05-10T14:37:17;5.10;;;1.77;;
39540;SDS011;25219;52.244;21.006;2023-05-10T14:39:42;3.60;;;1.70;;
39540;SDS011;25219;52.244;21.006;2023-05-10T14:42:07;7.82;;;1.73;;
39540;SDS011;25219;52.244;21.006;2023-05-10T14:44:33;5.63;;;1.48;;
39540;SDS011;25219;52.244;21.006;2023-05-10T14:46:58;3.57;;;1.90;;
39540;SDS011;25219;52.244;21.006;2023-05-10T14:49:24;6.13;;;1.57;;
39540;SDS011;25219;52.244;21.006;2023-05-10T14:51:50;4.47;;;1.55;;
39540;SDS011;25219;52.244;21.006;2023-05-10T14:54:16;5.82;;;1.48;;
39540;SDS011;25219;52.244;21.006;2023-05-10T14:56:41;3.57;;;1.90;;